sensor_id;sensor_type;location;lat;lon;timestamp;temperature;humidity
57390;DHT22;43217;52.694;6.214;2023-11-22T00:00:53;5.30;99.90
57390;DHT22;43217;52.694;6.214;2023-11-22T00:03:18;5.20;99.90
57390;DHT22;43217;52.694;6.214;2023-11-22T00:05:44;5.20;99.90
57390;DHT22;43217;52.694;6.214;2023-11-22T00:08:10;5.10;99.90
57390;DHT22;43217;52.694;6.214;2023-11-22T00:10:35;5.10;99.90
57390;DHT22;43217;52.694;6.214;2023-11-22T00:13:01;5.10;99.90
57390;DHT22;43217;52.694;6.214;2023-11-22T00:15:26;5.10;99.90
57390;DHT22;43217;52.694;6.214;2023-11-22T00:17:52;5.10;99.90
57390;DHT22;43217;52.694;6.214;2023-11-22T00:20:18;5.00;99.90
57390;DHT22;43217;52.694;6.214;2023-11-22T00:22:45;5.00;99.90
57390;DHT22;43217;52.694;6.214;2023-11-22T00:25:10;5.00;99.90
57390;DHT22;43217;52.694;6.214;2023-11-22T00:27:39;5.00;99.90
57390;DHT22;43217;52.694;6.214;2023-11-22T00:30:05;5.00;99.90
57390;DHT22;43217;52.694;6.214;2023-11-22T00:32:30;5.10;99.90
57390;DHT22;43217;52.694;6.214;2023-11-22T00:34:56;5.00;99.90
57390;DHT22;43217;52.694;6.214;2023-11-22T00:37:23;5.00;99.90
57390;DHT22;43217;52.694;6.214;2023-11-22T00:39:48;5.00;99.90
57390;DHT22;43217;52.694;6.214;2023-11-22T00:42:14;5.00;99.90
57390;DHT22;43217;52.694;6.214;2023-11-22T00:44:40;5.00;99.90
57390;DHT22;43217;52.694;6.214;2023-11-22T00:47:05;4.90;99.90
57390;DHT22;43217;52.694;6.214;2023-11-22T00:49:31;4.90;99.90
57390;DHT22;43217;52.694;6.214;2023-11-22T00:51:57;4.90;99.90
57390;DHT22;43217;52.694;6.214;2023-11-22T00:54:23;4.90;99.90
57390;DHT22;43217;52.694;6.214;2023-11-22T00:56:50;4.80;99.90
57390;DHT22;43217;52.694;6.214;2023-11-22T00:59:16;4.80;99.90
57390;DHT22;43217;52.694;6.214;2023-11-22T01:01:41;4.80;99.90
57390;DHT22;43217;52.694;6.214;2023-11-22T01:04:07;4.70;99.90
57390;DHT22;43217;52.694;6.214;2023-11-22T01:06:33;4.70;99.90
57390;DHT22;43217;52.694;6.214;2023-11-22T01:09:00;4.60;99.90
57390;DHT22;43217;52.694;6.214;2023-11-22T01:11:25;4.60;99.90
57390;DHT22;43217;52.694;6.214;2023-11-22T01:13:51;4.60;99.90
57390;DHT22;43217;52.694;6.214;2023-11-22T01:16:17;4.60;99.90
57390;DHT22;43217;52.694;6.214;2023-11-22T01:18:42;4.50;99.90
57390;DHT22;43217;52.694;6.214;2023-11-22T01:21:08;4.50;99.90
57390;DHT22;43217;52.694;6.214;2023-11-22T01:23:34;4.50;99.90
57390;DHT22;43217;52.694;6.214;2023-11-22T01:26:00;4.50;99.90
57390;DHT22;43217;52.694;6.214;2023-11-22T01:28:26;4.50;99.90
57390;DHT22;43217;52.694;6.214;2023-11-22T01:30:53;4.50;99.90
57390;DHT22;43217;52.694;6.214;2023-11-22T01:33:20;4.40;99.90
57390;DHT22;43217;52.694;6.214;2023-11-22T01:35:46;4.40;99.90
57390;DHT22;43217;52.694;6.214;2023-11-22T01:38:11;4.40;99.90
57390;DHT22;43217;52.694;6.214;2023-11-22T01:40:46;4.40;99.90
57390;DHT22;43217;52.694;6.214;2023-11-22T01:43:17;4.40;99.90
57390;DHT22;43217;52.694;6.214;2023-11-22T01:45:43;4.40;99.90
57390;DHT22;43217;52.694;6.214;2023-11-22T01:48:12;4.30;99.90
57390;DHT22;43217;52.694;6.214;2023-11-22T01:50:39;4.30;99.90
57390;DHT22;43217;52.694;6.214;2023-11-22T01:53:06;4.30;99.90
57390;DHT22;43217;52.694;6.214;2023-11-22T01:55:32;4.30;99.90
57390;DHT22;43217;52.694;6.214;2023-11-22T01:57:58;4.20;99.90
57390;DHT22;43217;52.694;6.214;2023-11-22T02:00:25;4.20;99.90
57390;DHT22;43217;52.694;6.214;2023-11-22T02:02:52;4.20;99.90
57390;DHT22;43217;52.694;6.214;2023-11-22T02:05:18;4.10;99.90
57390;DHT22;43217;52.694;6.214;2023-11-22T02:07:44;4.10;99.90
57390;DHT22;43217;52.694;6.214;2023-11-22T02:10:10;4.10;99.90
57390;DHT22;43217;52.694;6.214;2023-11-22T02:12:35;4.10;99.90
57390;DHT22;43217;52.694;6.214;2023-11-22T02:15:02;4.10;99.90
57390;DHT22;43217;52.694;6.214;2023-11-22T02:17:29;4.10;99.90
57390;DHT22;43217;52.694;6.214;2023-11-22T02:19:54;4.00;99.90
57390;DHT22;43217;52.694;6.214;2023-11-22T02:22:20;4.00;99.90
57390;DHT22;43217;52.694;6.214;2023-11-22T02:24:47;4.00;99.90
57390;DHT22;43217;52.694;6.214;2023-11-22T02:27:12;4.00;99.90
57390;DHT22;43217;52.694;6.214;2023-11-22T02:29:38;4.00;99.90
57390;DHT22;43217;52.694;6.214;2023-11-22T02:32:04;4.00;99.90
57390;DHT22;43217;52.694;6.214;2023-11-22T02:34:29;3.90;99.90
57390;DHT22;43217;52.694;6.214;2023-11-22T02:36:56;3.90;99.90
57390;DHT22;43217;52.694;6.214;2023-11-22T02:39:27;3.90;99.90
57390;DHT22;43217;52.694;6.214;2023-11-22T02:41:55;3.80;99.90
57390;DHT22;43217;52.694;6.214;2023-11-22T02:44:20;3.80;99.90
57390;DHT22;43217;52.694;6.214;2023-11-22T02:46:46;3.80;99.90
57390;DHT22;43217;52.694;6.214;2023-11-22T02:49:12;3.70;99.90
57390;DHT22;43217;52.694;6.214;2023-11-22T02:51:38;3.70;99.90
57390;DHT22;43217;52.694;6.214;2023-11-22T02:54:03;3.70;99.90
57390;DHT22;43217;52.694;6.214;2023-11-22T02:56:30;3.70;99.90
57390;DHT22;43217;52.694;6.214;2023-11-22T02:58:56;3.60;99.90
57390;DHT22;43217;52.694;6.214;2023-11-22T03:01:22;3.60;99.90
57390;DHT22;43217;52.694;6.214;2023-11-22T03:03:47;3.60;99.90
57390;DHT22;43217;52.694;6.214;2023-11-22T03:06:13;3.50;99.90
57390;DHT22;43217;52.694;6.214;2023-11-22T03:08:38;3.50;99.90
57390;DHT22;43217;52.694;6.214;2023-11-22T03:11:04;3.40;99.90
57390;DHT22;43217;52.694;6.214;2023-11-22T03:13:29;3.40;99.90
57390;DHT22;43217;52.694;6.214;2023-11-22T03:15:55;3.40;99.90
57390;DHT22;43217;52.694;6.214;2023-11-22T03:18:21;3.30;99.90
57390;DHT22;43217;52.694;6.214;2023-11-22T03:20:46;3.30;99.90
57390;DHT22;43217;52.694;6.214;2023-11-22T03:23:12;3.30;99.90
57390;DHT22;43217;52.694;6.214;2023-11-22T03:25:37;3.30;99.90
57390;DHT22;43217;52.694;6.214;2023-11-22T03:28:03;3.20;99.90
57390;DHT22;43217;52.694;6.214;2023-11-22T03:30:29;3.30;99.90
57390;DHT22;43217;52.694;6.214;2023-11-22T03:32:54;3.30;99.90
57390;DHT22;43217;52.694;6.214;2023-11-22T03:35:21;3.30;99.90
57390;DHT22;43217;52.694;6.214;2023-11-22T03:37:47;3.30;99.90
57390;DHT22;43217;52.694;6.214;2023-11-22T03:40:12;3.30;99.90
57390;DHT22;43217;52.694;6.214;2023-11-22T03:42:39;3.20;99.90
57390;DHT22;43217;52.694;6.214;2023-11-22T03:45:05;3.20;99.90
57390;DHT22;43217;52.694;6.214;2023-11-22T03:47:31;3.20;99.90
57390;DHT22;43217;52.694;6.214;2023-11-22T03:49:58;3.20;99.90
57390;DHT22;43217;52.694;6.214;2023-11-22T03:52:25;3.20;99.90
57390;DHT22;43217;52.694;6.214;2023-11-22T03:54:52;3.20;99.90
57390;DHT22;43217;52.694;6.214;2023-11-22T03:57:18;3.10;99.90
57390;DHT22;43217;52.694;6.214;2023-11-22T03:59:43;3.10;99.90
57390;DHT22;43217;52.694;6.214;2023-11-22T04:02:09;3.10;99.90
57390;DHT22;43217;52.694;6.214;2023-11-22T04:04:36;3.10;99.90
57390;DHT22;43217;52.694;6.214;2023-11-22T04:07:03;3.10;99.90
57390;DHT22;43217;52.694;6.214;2023-11-22T04:09:28;3.00;99.90
57390;DHT22;43217;52.694;6.214;2023-11-22T04:11:55;3.00;99.90
57390;DHT22;43217;52.694;6.214;2023-11-22T04:14:20;3.00;99.90
57390;DHT22;43217;52.694;6.214;2023-11-22T04:16:47;3.00;99.90
57390;DHT22;43217;52.694;6.214;2023-11-22T04:19:12;2.90;99.90
57390;DHT22;43217;52.694;6.214;2023-11-22T04:21:38;2.90;99.90
57390;DHT22;43217;52.694;6.214;2023-11-22T04:24:04;2.90;99.90
57390;DHT22;43217;52.694;6.214;2023-11-22T04:26:30;2.90;99.90
57390;DHT22;43217;52.694;6.214;2023-11-22T04:28:55;2.90;99.90
57390;DHT22;43217;52.694;6.214;2023-11-22T04:31:21;2.90;99.90
57390;DHT22;43217;52.694;6.214;2023-11-22T04:33:47;2.90;99.90
57390;DHT22;43217;52.694;6.214;2023-11-22T04:36:12;2.90;99.90
57390;DHT22;43217;52.694;6.214;2023-11-22T04:38:38;2.90;99.90
57390;DHT22;43217;52.694;6.214;2023-11-22T04:41:03;2.90;99.90
57390;DHT22;43217;52.694;6.214;2023-11-22T04:43:29;2.90;99.90
57390;DHT22;43217;52.694;6.214;2023-11-22T04:45:54;2.90;99.90
57390;DHT22;43217;52.694;6.214;2023-11-22T04:48:20;2.80;99.90
57390;DHT22;43217;52.694;6.214;2023-11-22T04:50:45;2.80;99.90
57390;DHT22;43217;52.694;6.214;2023-11-22T04:53:11;2.80;99.90
57390;DHT22;43217;52.694;6.214;2023-11-22T04:55:37;2.70;99.90
57390;DHT22;43217;52.694;6.214;2023-11-22T04:58:03;2.70;99.90
57390;DHT22;43217;52.694;6.214;2023-11-22T05:00:28;2.70;99.90
57390;DHT22;43217;52.694;6.214;2023-11-22T05:02:54;2.60;99.90
57390;DHT22;43217;52.694;6.214;2023-11-22T05:05:20;2.60;99.90
57390;DHT22;43217;52.694;6.214;2023-11-22T05:07:46;2.60;99.90
57390;DHT22;43217;52.694;6.214;2023-11-22T05:10:13;2.60;99.90
57390;DHT22;43217;52.694;6.214;2023-11-22T05:12:39;2.60;99.90
57390;DHT22;43217;52.694;6.214;2023-11-22T05:15:06;2.60;99.90
57390;DHT22;43217;52.694;6.214;2023-11-22T05:17:32;2.60;99.90
57390;DHT22;43217;52.694;6.214;2023-11-22T05:19:58;2.60;99.90
57390;DHT22;43217;52.694;6.214;2023-11-22T05:22:23;2.60;99.90
57390;DHT22;43217;52.694;6.214;2023-11-22T05:24:49;2.60;99.90
57390;DHT22;43217;52.694;6.214;2023-11-22T05:27:15;2.60;99.90
57390;DHT22;43217;52.694;6.214;2023-11-22T05:29:40;2.60;99.90
57390;DHT22;43217;52.694;6.214;2023-11-22T05:32:06;2.60;99.90
57390;DHT22;43217;52.694;6.214;2023-11-22T05:34:32;2.60;99.90
57390;DHT22;43217;52.694;6.214;2023-11-22T05:36:58;2.60;99.90
57390;DHT22;43217;52.694;6.214;2023-11-22T05:39:24;2.60;99.90
57390;DHT22;43217;52.694;6.214;2023-11-22T05:41:53;2.60;99.90
57390;DHT22;43217;52.694;6.214;2023-11-22T05:44:19;2.70;99.90
57390;DHT22;43217;52.694;6.214;2023-11-22T05:46:45;2.70;99.90
57390;DHT22;43217;52.694;6.214;2023-11-22T05:49:10;2.80;99.90
57390;DHT22;43217;52.694;6.214;2023-11-22T05:51:37;2.80;99.90
57390;DHT22;43217;52.694;6.214;2023-11-22T05:54:06;2.80;99.90
57390;DHT22;43217;52.694;6.214;2023-11-22T05:56:32;2.90;99.90
57390;DHT22;43217;52.694;6.214;2023-11-22T05:58:57;2.80;99.90
57390;DHT22;43217;52.694;6.214;2023-11-22T06:01:25;2.80;99.90
57390;DHT22;43217;52.694;6.214;2023-11-22T06:03:52;2.80;99.90
57390;DHT22;43217;52.694;6.214;2023-11-22T06:06:18;2.90;99.90
57390;DHT22;43217;52.694;6.214;2023-11-22T06:08:47;2.80;99.90
57390;DHT22;43217;52.694;6.214;2023-11-22T06:11:12;2.90;99.90
57390;DHT22;43217;52.694;6.214;2023-11-22T06:13:39;2.90;99.90
57390;DHT22;43217;52.694;6.214;2023-11-22T06:16:04;2.90;99.90
57390;DHT22;43217;52.694;6.214;2023-11-22T06:18:32;2.90;99.90
57390;DHT22;43217;52.694;6.214;2023-11-22T06:20:59;2.80;99.90
57390;DHT22;43217;52.694;6.214;2023-11-22T06:23:25;2.70;99.90
57390;DHT22;43217;52.694;6.214;2023-11-22T06:25:50;2.70;99.90
57390;DHT22;43217;52.694;6.214;2023-11-22T06:28:17;2.70;99.90
57390;DHT22;43217;52.694;6.214;2023-11-22T06:30:43;2.80;99.90
57390;DHT22;43217;52.694;6.214;2023-11-22T06:33:08;2.80;99.90
57390;DHT22;43217;52.694;6.214;2023-11-22T06:35:34;2.80;99.90
57390;DHT22;43217;52.694;6.214;2023-11-22T06:38:00;2.80;99.90
57390;DHT22;43217;52.694;6.214;2023-11-22T06:40:25;2.80;99.90
57390;DHT22;43217;52.694;6.214;2023-11-22T06:42:51;2.90;99.90
57390;DHT22;43217;52.694;6.214;2023-11-22T06:45:17;2.90;99.90
57390;DHT22;43217;52.694;6.214;2023-11-22T06:47:43;2.90;99.90
57390;DHT22;43217;52.694;6.214;2023-11-22T06:50:10;2.80;99.90
57390;DHT22;43217;52.694;6.214;2023-11-22T06:52:39;2.80;99.90
57390;DHT22;43217;52.694;6.214;2023-11-22T06:55:05;2.80;99.90
57390;DHT22;43217;52.694;6.214;2023-11-22T06:57:33;2.80;99.90
57390;DHT22;43217;52.694;6.214;2023-11-22T06:59:59;2.80;99.90
57390;DHT22;43217;52.694;6.214;2023-11-22T07:02:26;2.80;99.90
57390;DHT22;43217;52.694;6.214;2023-11-22T07:04:52;2.70;99.90
57390;DHT22;43217;52.694;6.214;2023-11-22T07:07:18;2.70;99.90
57390;DHT22;43217;52.694;6.214;2023-11-22T07:09:45;2.70;99.90
57390;DHT22;43217;52.694;6.214;2023-11-22T07:12:11;2.70;99.90
57390;DHT22;43217;52.694;6.214;2023-11-22T07:14:38;2.70;99.90
57390;DHT22;43217;52.694;6.214;2023-11-22T07:17:03;2.70;99.90
57390;DHT22;43217;52.694;6.214;2023-11-22T07:19:32;2.70;99.90
57390;DHT22;43217;52.694;6.214;2023-11-22T07:21:59;2.70;99.90
57390;DHT22;43217;52.694;6.214;2023-11-22T07:24:25;2.70;99.90
57390;DHT22;43217;52.694;6.214;2023-11-22T07:26:51;2.70;99.90
57390;DHT22;43217;52.694;6.214;2023-11-22T07:29:16;2.70;99.90
57390;DHT22;43217;52.694;6.214;2023-11-22T07:31:42;2.70;99.90
57390;DHT22;43217;52.694;6.214;2023-11-22T07:34:08;2.70;99.90
57390;DHT22;43217;52.694;6.214;2023-11-22T07:36:37;2.80;99.90
57390;DHT22;43217;52.694;6.214;2023-11-22T07:39:04;2.70;99.90
57390;DHT22;43217;52.694;6.214;2023-11-22T07:41:30;2.70;99.90
57390;DHT22;43217;52.694;6.214;2023-11-22T07:43:57;2.70;99.90
57390;DHT22;43217;52.694;6.214;2023-11-22T07:46:22;2.80;99.90
57390;DHT22;43217;52.694;6.214;2023-11-22T07:48:48;2.80;99.90
57390;DHT22;43217;52.694;6.214;2023-11-22T07:51:15;2.80;99.90
57390;DHT22;43217;52.694;6.214;2023-11-22T07:53:43;2.80;99.90
57390;DHT22;43217;52.694;6.214;2023-11-22T07:56:09;2.80;99.90
57390;DHT22;43217;52.694;6.214;2023-11-22T07:58:37;2.80;99.90
57390;DHT22;43217;52.694;6.214;2023-11-22T08:01:03;2.80;99.90
57390;DHT22;43217;52.694;6.214;2023-11-22T08:03:32;2.80;99.90
57390;DHT22;43217;52.694;6.214;2023-11-22T08:05:57;2.90;99.90
57390;DHT22;43217;52.694;6.214;2023-11-22T08:08:23;2.90;99.90
57390;DHT22;43217;52.694;6.214;2023-11-22T08:10:49;2.90;99.90
57390;DHT22;43217;52.694;6.214;2023-11-22T08:13:19;2.90;99.90
57390;DHT22;43217;52.694;6.214;2023-11-22T08:15:45;3.00;99.90
57390;DHT22;43217;52.694;6.214;2023-11-22T08:18:14;3.00;99.90
57390;DHT22;43217;52.694;6.214;2023-11-22T08:20:42;3.00;99.90
57390;DHT22;43217;52.694;6.214;2023-11-22T08:23:09;3.10;99.90
57390;DHT22;43217;52.694;6.214;2023-11-22T08:25:35;3.10;99.90
57390;DHT22;43217;52.694;6.214;2023-11-22T08:28:03;3.20;99.90
57390;DHT22;43217;52.694;6.214;2023-11-22T08:30:30;3.20;99.90
57390;DHT22;43217;52.694;6.214;2023-11-22T08:32:58;3.20;99.90
57390;DHT22;43217;52.694;6.214;2023-11-22T08:35:23;3.30;99.90
57390;DHT22;43217;52.694;6.214;2023-11-22T08:37:49;3.20;99.90
57390;DHT22;43217;52.694;6.214;2023-11-22T08:40:16;3.20;99.90
57390;DHT22;43217;52.694;6.214;2023-11-22T08:42:49;3.20;99.90
57390;DHT22;43217;52.694;6.214;2023-11-22T08:45:15;3.20;99.90
57390;DHT22;43217;52.694;6.214;2023-11-22T08:47:41;3.20;99.90
57390;DHT22;43217;52.694;6.214;2023-11-22T08:50:10;3.30;99.90
57390;DHT22;43217;52.694;6.214;2023-11-22T08:52:39;3.30;99.90
57390;DHT22;43217;52.694;6.214;2023-11-22T08:55:06;3.30;99.90
57390;DHT22;43217;52.694;6.214;2023-11-22T08:57:36;3.30;99.90
57390;DHT22;43217;52.694;6.214;2023-11-22T09:00:06;3.30;99.90
57390;DHT22;43217;52.694;6.214;2023-11-22T09:02:37;3.30;99.90
57390;DHT22;43217;52.694;6.214;2023-11-22T09:05:04;3.30;99.90
57390;DHT22;43217;52.694;6.214;2023-11-22T09:07:33;3.30;99.90
57390;DHT22;43217;52.694;6.214;2023-11-22T09:10:01;3.30;99.90
57390;DHT22;43217;52.694;6.214;2023-11-22T09:12:34;3.30;99.90
57390;DHT22;43217;52.694;6.214;2023-11-22T09:15:00;3.30;99.90
57390;DHT22;43217;52.694;6.214;2023-11-22T09:17:26;3.40;99.90
57390;DHT22;43217;52.694;6.214;2023-11-22T09:19:52;3.40;99.90
57390;DHT22;43217;52.694;6.214;2023-11-22T09:22:17;3.40;99.90
57390;DHT22;43217;52.694;6.214;2023-11-22T09:24:43;3.40;99.90
57390;DHT22;43217;52.694;6.214;2023-11-22T09:27:10;3.50;99.90
57390;DHT22;43217;52.694;6.214;2023-11-22T09:29:40;3.50;99.90
57390;DHT22;43217;52.694;6.214;2023-11-22T09:32:06;3.50;99.90
57390;DHT22;43217;52.694;6.214;2023-11-22T09:34:31;3.50;99.90
57390;DHT22;43217;52.694;6.214;2023-11-22T09:36:57;3.60;99.90
57390;DHT22;43217;52.694;6.214;2023-11-22T09:39:23;3.50;99.90
57390;DHT22;43217;52.694;6.214;2023-11-22T09:41:51;3.50;99.90
57390;DHT22;43217;52.694;6.214;2023-11-22T09:44:17;3.60;99.90
57390;DHT22;43217;52.694;6.214;2023-11-22T09:46:43;3.60;99.90
57390;DHT22;43217;52.694;6.214;2023-11-22T09:49:14;3.70;99.90
57390;DHT22;43217;52.694;6.214;2023-11-22T09:51:42;3.70;99.90
57390;DHT22;43217;52.694;6.214;2023-11-22T09:54:09;3.80;99.90
57390;DHT22;43217;52.694;6.214;2023-11-22T09:56:39;3.80;99.90
57390;DHT22;43217;52.694;6.214;2023-11-22T09:59:06;3.90;99.90
57390;DHT22;43217;52.694;6.214;2023-11-22T10:01:33;4.00;99.90
57390;DHT22;43217;52.694;6.214;2023-11-22T10:04:04;4.00;99.90
57390;DHT22;43217;52.694;6.214;2023-11-22T10:06:31;4.10;99.90
57390;DHT22;43217;52.694;6.214;2023-11-22T10:09:01;4.10;99.90
57390;DHT22;43217;52.694;6.214;2023-11-22T10:11:27;4.10;99.90
57390;DHT22;43217;52.694;6.214;2023-11-22T10:13:54;4.20;99.90
57390;DHT22;43217;52.694;6.214;2023-11-22T10:16:19;4.20;99.90
57390;DHT22;43217;52.694;6.214;2023-11-22T10:18:47;4.30;99.90
57390;DHT22;43217;52.694;6.214;2023-11-22T10:21:28;4.30;99.90
57390;DHT22;43217;52.694;6.214;2023-11-22T10:23:56;4.30;99.90
57390;DHT22;43217;52.694;6.214;2023-11-22T10:26:23;4.40;99.90
57390;DHT22;43217;52.694;6.214;2023-11-22T10:28:53;4.40;99.90
57390;DHT22;43217;52.694;6.214;2023-11-22T10:31:22;4.50;99.90
57390;DHT22;43217;52.694;6.214;2023-11-22T10:33:49;4.50;99.90
57390;DHT22;43217;52.694;6.214;2023-11-22T10:36:15;4.50;99.90
57390;DHT22;43217;52.694;6.214;2023-11-22T10:38:45;4.50;99.90
57390;DHT22;43217;52.694;6.214;2023-11-22T10:41:12;4.60;99.90
57390;DHT22;43217;52.694;6.214;2023-11-22T10:43:39;4.60;99.90
57390;DHT22;43217;52.694;6.214;2023-11-22T10:46:07;4.60;99.90
57390;DHT22;43217;52.694;6.214;2023-11-22T10:48:36;4.60;99.90
57390;DHT22;43217;52.694;6.214;2023-11-22T10:51:03;4.60;99.90
57390;DHT22;43217;52.694;6.214;2023-11-22T10:53:37;4.70;99.90
57390;DHT22;43217;52.694;6.214;2023-11-22T10:56:15;4.70;99.90
57390;DHT22;43217;52.694;6.214;2023-11-22T10:58:51;4.70;99.90
57390;DHT22;43217;52.694;6.214;2023-11-22T11:01:18;4.80;99.90
57390;DHT22;43217;52.694;6.214;2023-11-22T11:04:09;4.90;99.90
57390;DHT22;43217;52.694;6.214;2023-11-22T11:06:37;4.90;99.90
57390;DHT22;43217;52.694;6.214;2023-11-22T11:09:04;4.90;99.90
57390;DHT22;43217;52.694;6.214;2023-11-22T11:11:32;5.00;99.90
57390;DHT22;43217;52.694;6.214;2023-11-22T11:13:58;5.00;99.90
57390;DHT22;43217;52.694;6.214;2023-11-22T11:16:25;5.00;99.90
57390;DHT22;43217;52.694;6.214;2023-11-22T11:18:52;5.00;99.90
57390;DHT22;43217;52.694;6.214;2023-11-22T11:21:19;4.90;99.90
57390;DHT22;43217;52.694;6.214;2023-11-22T11:23:44;5.00;99.90
57390;DHT22;43217;52.694;6.214;2023-11-22T11:26:19;5.00;99.90
57390;DHT22;43217;52.694;6.214;2023-11-22T11:28:49;5.00;99.90
57390;DHT22;43217;52.694;6.214;2023-11-22T11:31:31;5.00;99.90
57390;DHT22;43217;52.694;6.214;2023-11-22T11:33:57;5.00;99.90
57390;DHT22;43217;52.694;6.214;2023-11-22T11:36:29;5.10;99.90
57390;DHT22;43217;52.694;6.214;2023-11-22T11:38:58;5.10;99.90
57390;DHT22;43217;52.694;6.214;2023-11-22T11:41:27;5.10;99.90
57390;DHT22;43217;52.694;6.214;2023-11-22T11:43:56;5.20;99.90
57390;DHT22;43217;52.694;6.214;2023-11-22T11:46:22;5.20;99.90
57390;DHT22;43217;52.694;6.214;2023-11-22T11:48:54;5.30;99.90
57390;DHT22;43217;52.694;6.214;2023-11-22T11:51:26;5.40;99.90
57390;DHT22;43217;52.694;6.214;2023-11-22T11:53:53;5.40;99.90
57390;DHT22;43217;52.694;6.214;2023-11-22T11:56:19;5.40;99.90
57390;DHT22;43217;52.694;6.214;2023-11-22T11:58:45;5.40;99.90
57390;DHT22;43217;52.694;6.214;2023-11-22T12:01:15;5.40;99.90
57390;DHT22;43217;52.694;6.214;2023-11-22T12:03:48;5.50;99.90
57390;DHT22;43217;52.694;6.214;2023-11-22T12:06:18;5.50;99.90
57390;DHT22;43217;52.694;6.214;2023-11-22T12:08:45;5.60;99.90
57390;DHT22;43217;52.694;6.214;2023-11-22T12:11:12;5.60;99.90
57390;DHT22;43217;52.694;6.214;2023-11-22T12:13:38;5.70;99.90
57390;DHT22;43217;52.694;6.214;2023-11-22T12:16:07;5.80;99.90
57390;DHT22;43217;52.694;6.214;2023-11-22T12:18:49;5.80;99.90
57390;DHT22;43217;52.694;6.214;2023-11-22T12:21:16;5.90;99.90
57390;DHT22;43217;52.694;6.214;2023-11-22T12:23:44;5.90;99.90
57390;DHT22;43217;52.694;6.214;2023-11-22T12:26:19;6.00;99.90
57390;DHT22;43217;52.694;6.214;2023-11-22T12:28:46;6.00;99.90
57390;DHT22;43217;52.694;6.214;2023-11-22T12:31:13;6.00;99.90
57390;DHT22;43217;52.694;6.214;2023-11-22T12:33:43;6.00;99.90
57390;DHT22;43217;52.694;6.214;2023-11-22T12:36:11;6.00;99.90
57390;DHT22;43217;52.694;6.214;2023-11-22T12:38:41;6.00;99.90
57390;DHT22;43217;52.694;6.214;2023-11-22T12:41:07;6.00;99.90
57390;DHT22;43217;52.694;6.214;2023-11-22T12:43:33;5.90;99.90
57390;DHT22;43217;52.694;6.214;2023-11-22T12:46:06;5.90;99.90
57390;DHT22;43217;52.694;6.214;2023-11-22T12:48:33;5.80;99.90
57390;DHT22;43217;52.694;6.214;2023-11-22T12:50:59;5.80;99.90
57390;DHT22;43217;52.694;6.214;2023-11-22T12:53:26;5.80;99.90
57390;DHT22;43217;52.694;6.214;2023-11-22T12:55:54;5.70;99.90
57390;DHT22;43217;52.694;6.214;2023-11-22T12:58:21;5.70;99.90
57390;DHT22;43217;52.694;6.214;2023-11-22T13:00:48;5.70;99.90
57390;DHT22;43217;52.694;6.214;2023-11-22T13:03:14;5.70;99.90
57390;DHT22;43217;52.694;6.214;2023-11-22T13:05:44;5.70;99.90
57390;DHT22;43217;52.694;6.214;2023-11-22T13:08:11;5.70;99.90
57390;DHT22;43217;52.694;6.214;2023-11-22T13:10:39;5.70;99.90
57390;DHT22;43217;52.694;6.214;2023-11-22T13:13:05;5.70;99.90
57390;DHT22;43217;52.694;6.214;2023-11-22T13:15:34;5.80;99.90
57390;DHT22;43217;52.694;6.214;2023-11-22T13:18:00;5.80;99.90
57390;DHT22;43217;52.694;6.214;2023-11-22T13:20:26;5.80;99.90
57390;DHT22;43217;52.694;6.214;2023-11-22T13:22:53;5.80;99.90
57390;DHT22;43217;52.694;6.214;2023-11-22T13:25:19;5.80;99.90
57390;DHT22;43217;52.694;6.214;2023-11-22T13:27:46;5.80;99.90
57390;DHT22;43217;52.694;6.214;2023-11-22T13:30:17;5.80;99.90
57390;DHT22;43217;52.694;6.214;2023-11-22T13:32:45;5.80;99.90
57390;DHT22;43217;52.694;6.214;2023-11-22T13:35:12;5.80;99.90
57390;DHT22;43217;52.694;6.214;2023-11-22T13:37:44;5.80;99.90
57390;DHT22;43217;52.694;6.214;2023-11-22T13:40:12;5.80;99.90
57390;DHT22;43217;52.694;6.214;2023-11-22T13:42:45;5.80;99.90
57390;DHT22;43217;52.694;6.214;2023-11-22T13:45:12;5.80;99.90
57390;DHT22;43217;52.694;6.214;2023-11-22T13:47:50;5.80;99.90
57390;DHT22;43217;52.694;6.214;2023-11-22T13:50:19;5.80;99.90
57390;DHT22;43217;52.694;6.214;2023-11-22T13:52:47;5.90;99.90
57390;DHT22;43217;52.694;6.214;2023-11-22T13:55:14;5.80;99.90
57390;DHT22;43217;52.694;6.214;2023-11-22T13:57:41;5.80;99.90
57390;DHT22;43217;52.694;6.214;2023-11-22T14:00:07;5.80;99.90
57390;DHT22;43217;52.694;6.214;2023-11-22T14:02:39;5.80;99.90
57390;DHT22;43217;52.694;6.214;2023-11-22T14:05:06;5.90;99.90
57390;DHT22;43217;52.694;6.214;2023-11-22T14:07:34;5.80;99.90
57390;DHT22;43217;52.694;6.214;2023-11-22T14:10:00;5.80;99.90
57390;DHT22;43217;52.694;6.214;2023-11-22T14:12:29;5.80;99.90
57390;DHT22;43217;52.694;6.214;2023-11-22T14:14:54;5.80;99.90
57390;DHT22;43217;52.694;6.214;2023-11-22T14:17:20;5.80;99.90
57390;DHT22;43217;52.694;6.214;2023-11-22T14:19:46;5.70;99.90
57390;DHT22;43217;52.694;6.214;2023-11-22T14:22:12;5.70;99.90
57390;DHT22;43217;52.694;6.214;2023-11-22T14:24:39;5.70;99.90
57390;DHT22;43217;52.694;6.214;2023-11-22T14:27:05;5.70;99.90
57390;DHT22;43217;52.694;6.214;2023-11-22T14:29:31;5.70;99.90
57390;DHT22;43217;52.694;6.214;2023-11-22T14:31:58;5.60;99.90
57390;DHT22;43217;52.694;6.214;2023-11-22T14:34:24;5.70;99.90
57390;DHT22;43217;52.694;6.214;2023-11-22T14:36:49;5.70;99.90
57390;DHT22;43217;52.694;6.214;2023-11-22T14:39:15;5.70;99.90
57390;DHT22;43217;52.694;6.214;2023-11-22T14:41:41;5.70;99.90
57390;DHT22;43217;52.694;6.214;2023-11-22T14:44:06;5.60;99.90
57390;DHT22;43217;52.694;6.214;2023-11-22T14:46:34;5.70;99.90
57390;DHT22;43217;52.694;6.214;2023-11-22T14:49:02;5.60;99.90
57390;DHT22;43217;52.694;6.214;2023-11-22T14:51:28;5.60;99.90
57390;DHT22;43217;52.694;6.214;2023-11-22T14:53:54;5.60;99.90
57390;DHT22;43217;52.694;6.214;2023-11-22T14:56:20;5.60;99.90
57390;DHT22;43217;52.694;6.214;2023-11-22T14:58:46;5.70;99.90
57390;DHT22;43217;52.694;6.214;2023-11-22T15:01:21;5.70;99.90
57390;DHT22;43217;52.694;6.214;2023-11-22T15:03:48;5.70;99.90
57390;DHT22;43217;52.694;6.214;2023-11-22T15:06:15;5.70;99.90
57390;DHT22;43217;52.694;6.214;2023-11-22T15:08:41;5.70;99.90
57390;DHT22;43217;52.694;6.214;2023-11-22T15:11:07;5.70;99.90
57390;DHT22;43217;52.694;6.214;2023-11-22T15:13:34;5.70;99.90
57390;DHT22;43217;52.694;6.214;2023-11-22T15:16:01;5.70;99.90
57390;DHT22;43217;52.694;6.214;2023-11-22T15:18:27;5.70;99.90
57390;DHT22;43217;52.694;6.214;2023-11-22T15:20:53;5.70;99.90
57390;DHT22;43217;52.694;6.214;2023-11-22T15:23:18;5.70;99.90
57390;DHT22;43217;52.694;6.214;2023-11-22T15:25:46;5.60;99.90
57390;DHT22;43217;52.694;6.214;2023-11-22T15:28:12;5.70;99.90
57390;DHT22;43217;52.694;6.214;2023-11-22T15:30:46;5.60;99.90
57390;DHT22;43217;52.694;6.214;2023-11-22T15:33:11;5.60;99.90
57390;DHT22;43217;52.694;6.214;2023-11-22T15:35:37;5.60;99.90
57390;DHT22;43217;52.694;6.214;2023-11-22T15:38:03;5.50;99.90
57390;DHT22;43217;52.694;6.214;2023-11-22T15:40:29;5.60;99.90
57390;DHT22;43217;52.694;6.214;2023-11-22T15:42:55;5.60;99.90